Time;durP1;ratioP1;P1;durP2;ratioP2;P2;SDS_P1;SDS_P2;PMS_P1;PMS_P2;Temp;Humidity;BMP_temperature;BMP_pressure;BME280_temperature;BME280_humidity;BME280_pressure;Samples;Min_cycle;Max_cycle;Signal;HPM_P1;HPM_P2
2023/07/03 00:00:33;;;;;;;;;13.67;13.00;;;;;20.40;68.75;100739.88;5033841;28;45531;-83
2023/07/03 00:02:59;;;;;;;;;14.67;12.00;;;;;20.35;68.32;100734.63;5037528;28;45164;-81
2023/07/03 00:05:24;;;;;;;;;15.00;14.00;;;;;20.28;69.46;100722.28;5018317;28;45602;-86
2023/07/03 00:07:50;;;;;;;;;17.67;15.00;;;;;20.28;69.22;100738.19;5017235;28;46541;-88
2023/07/03 00:10:16;;;;;;;;;14.67;12.00;;;;;20.21;69.38;100723.22;5027532;28;45552;-73
2023/07/03 00:12:43;;;;;;;;;16.00;13.67;;;;;20.23;69.27;100732.03;5034119;28;45401;-73
2023/07/03 00:15:09;;;;;;;;;14.67;14.33;;;;;20.18;69.68;100721.47;5017481;28;46550;-72
2023/07/03 00:17:37;;;;;;;;;14.67;14.67;;;;;19.97;70.10;100708.34;5017597;28;45264;-74
2023/07/03 00:20:04;;;;;;;;;14.67;13.00;;;;;19.88;70.37;100711.06;5017725;28;45371;-85
2023/07/03 00:22:29;;;;;;;;;15.33;12.67;;;;;19.92;70.01;100718.09;5023534;28;45491;-73
2023/07/03 00:24:55;;;;;;;;;16.00;15.00;;;;;19.91;70.16;100721.63;5024284;28;45999;-84
2023/07/03 00:27:21;;;;;;;;;14.00;12.67;;;;;19.88;69.62;100706.63;5030086;28;45627;-81
2023/07/03 00:29:46;;;;;;;;;13.00;11.00;;;;;19.85;70.28;100714.59;5019051;28;45357;-73
2023/07/03 00:32:12;;;;;;;;;13.00;13.00;;;;;19.77;70.38;100700.50;5030618;28;45501;-73
2023/07/03 00:34:38;;;;;;;;;14.67;14.00;;;;;19.80;70.56;100709.31;5026600;28;45582;-73
2023/07/03 00:37:03;;;;;;;;;16.67;15.33;;;;;19.80;70.81;100711.97;5021258;28;45459;-73
2023/07/03 00:39:29;;;;;;;;;17.33;16.00;;;;;19.80;71.03;100705.81;5032147;28;45622;-86
2023/07/03 00:41:54;;;;;;;;;12.33;12.33;;;;;19.77;70.64;100697.84;5022860;28;45594;-74
2023/07/03 00:44:20;;;;;;;;;15.33;14.00;;;;;19.85;70.49;100691.59;5026608;28;46155;-73
2023/07/03 00:46:49;;;;;;;;;17.67;15.00;;;;;19.87;69.94;100683.66;5017075;28;45358;-73
2023/07/03 00:49:17;;;;;;;;;12.33;12.00;;;;;19.89;69.83;100687.16;5018439;28;45710;-86
2023/07/03 00:51:46;;;;;;;;;15.67;13.67;;;;;19.85;69.93;100669.53;5030287;28;45370;-87
2023/07/03 00:54:12;;;;;;;;;15.00;13.33;;;;;19.91;69.80;100680.09;5016994;28;45917;-75
2023/07/03 00:56:39;;;;;;;;;17.67;13.67;;;;;19.85;69.37;100680.13;5016890;28;45402;-77
2023/07/03 00:59:05;;;;;;;;;13.33;13.00;;;;;19.81;69.43;100670.44;5015632;28;45306;-73
2023/07/03 01:01:39;;;;;;;;;13.33;13.00;;;;;19.81;69.41;100673.09;5016793;28;45439;-73
2023/07/03 01:04:21;;;;;;;;;12.67;12.00;;;;;19.78;68.97;100668.69;5024351;28;45399;-72
2023/07/03 01:06:57;;;;;;;;;14.00;14.00;;;;;19.72;69.01;100657.25;5016493;28;45322;-73
2023/07/03 01:09:28;;;;;;;;;15.67;14.00;;;;;19.73;69.24;100672.25;5016778;28;45522;-73
2023/07/03 01:11:56;;;;;;;;;15.67;14.00;;;;;19.67;69.01;100674.00;5031850;28;45587;-86
2023/07/03 01:14:23;;;;;;;;;13.67;13.00;;;;;19.62;69.30;100657.25;5016050;28;45579;-73
2023/07/03 01:16:51;;;;;;;;;17.67;15.00;;;;;19.68;69.47;100673.13;5026973;28;45400;-75
2023/07/03 01:19:23;;;;;;;;;17.00;15.33;;;;;19.63;69.12;100666.09;5020302;28;47095;-73
2023/07/03 01:21:54;;;;;;;;;13.67;12.33;;;;;19.58;68.92;100655.53;5016547;28;45442;-86
2023/07/03 01:24:47;;;;;;;;;14.67;14.00;;;;;19.57;69.16;100669.66;5021573;28;46213;-86
2023/07/03 01:27:16;;;;;;;;;17.00;14.00;;;;;19.57;69.14;100667.00;5015960;28;45320;-86
2023/07/03 01:29:44;;;;;;;;;15.33;12.00;;;;;19.50;69.90;100673.22;5016625;28;45375;-86
2023/07/03 01:32:12;;;;;;;;;13.33;13.00;;;;;19.30;70.06;100668.03;5025511;28;45284;-84
2023/07/03 01:34:45;;;;;;;;;13.33;13.00;;;;;19.13;70.02;100668.06;5021338;28;46246;-86
2023/07/03 01:37:13;;;;;;;;;12.00;12.00;;;;;19.02;70.09;100667.19;5030465;28;45384;-80
2023/07/03 01:39:45;;;;;;;;;14.00;12.00;;;;;18.92;70.21;100663.72;5031871;28;45521;-85
2023/07/03 01:42:13;;;;;;;;;14.00;13.00;;;;;18.87;70.61;100650.47;5016461;28;45437;-75
2023/07/03 01:44:38;;;;;;;;;14.67;11.67;;;;;18.85;70.21;100651.38;5024541;28;46093;-86
2023/07/03 01:47:11;;;;;;;;;15.33;13.00;;;;;18.91;70.99;100661.06;5024386;28;45488;-86
2023/07/03 01:49:36;;;;;;;;;11.00;10.00;;;;;18.90;71.11;100654.91;5031264;28;46420;-84
2023/07/03 01:52:11;;;;;;;;;17.33;15.00;;;;;18.94;70.59;100661.97;5024282;28;45525;-87
2023/07/03 01:54:49;;;;;;;;;12.00;8.33;;;;;18.92;70.71;100658.44;5019532;28;45494;-87
2023/07/03 01:57:27;;;;;;;;;13.67;12.33;;;;;18.92;71.03;100655.78;5017969;28;45517;-73
2023/07/03 01:59:54;;;;;;;;;18.00;14.00;;;;;18.86;71.13;100640.78;5021978;28;45391;-74
2023/07/03 02:02:27;;;;;;;;;16.33;14.67;;;;;18.90;71.10;100643.41;5032599;28;45243;-87
2023/07/03 02:05:03;;;;;;;;;16.67;13.33;;;;;18.88;71.57;100646.97;5021992;28;46146;-72
2023/07/03 02:07:30;;;;;;;;;16.00;12.00;;;;;18.92;71.62;100649.59;5004250;28;45568;-86
2023/07/03 02:09:56;;;;;;;;;13.67;12.67;;;;;19.00;71.10;100651.34;5019771;28;45445;-86
2023/07/03 02:12:22;;;;;;;;;15.33;14.00;;;;;19.05;70.66;100648.69;5005532;28;45309;-87
2023/07/03 02:14:47;;;;;;;;;12.00;10.33;;;;;19.04;70.09;100646.94;5015916;28;45617;-87
2023/07/03 02:17:13;;;;;;;;;17.00;13.67;;;;;19.03;70.49;100647.81;5019292;28;45478;-73
2023/07/03 02:19:38;;;;;;;;;13.67;11.67;;;;;19.05;70.49;100646.03;5019814;28;45415;-87
2023/07/03 02:22:04;;;;;;;;;14.00;13.00;;;;;19.01;70.76;100641.63;5031579;28;45397;-73
2023/07/03 02:24:30;;;;;;;;;15.67;14.33;;;;;19.04;70.34;100647.81;5022574;28;45524;-78
2023/07/03 02:26:55;;;;;;;;;14.00;12.33;;;;;19.03;70.57;100643.38;5004024;28;45395;-87
2023/07/03 02:29:21;;;;;;;;;16.67;14.00;;;;;19.03;70.37;100648.69;5027545;28;45395;-84
2023/07/03 02:31:46;;;;;;;;;14.67;13.67;;;;;18.98;70.77;100644.28;5019493;28;45325;-82
2023/07/03 02:34:12;;;;;;;;;12.67;12.00;;;;;19.00;70.77;100647.78;5033956;28;46675;-74
2023/07/03 02:36:39;;;;;;;;;12.00;12.00;;;;;19.02;70.50;100644.28;5019241;28;45459;-73
2023/07/03 02:39:05;;;;;;;;;18.00;13.67;;;;;19.01;70.97;100652.22;5032556;28;45620;-86
2023/07/03 02:41:33;;;;;;;;;14.67;14.00;;;;;18.98;71.08;100657.50;5019576;28;45229;-86
2023/07/03 02:44:00;;;;;;;;;13.33;12.00;;;;;18.92;70.82;100642.56;5034846;28;46401;-87
2023/07/03 02:46:25;;;;;;;;;14.33;12.67;;;;;18.97;70.25;100645.19;5025128;28;45532;-86
2023/07/03 02:48:51;;;;;;;;;15.67;14.33;;;;;18.89;70.09;100642.53;5019459;28;45395;-86
2023/07/03 02:51:17;;;;;;;;;15.33;14.67;;;;;18.80;70.59;100643.47;5038102;28;45504;-85
2023/07/03 02:53:43;;;;;;;;;14.00;11.67;;;;;18.80;70.51;100654.03;5036385;28;45467;-87
2023/07/03 02:56:09;;;;;;;;;14.33;12.67;;;;;18.82;70.64;100641.69;5018850;28;45376;-86
2023/07/03 02:58:35;;;;;;;;;16.00;12.00;;;;;18.85;70.64;100644.31;5025166;28;45408;-73
2023/07/03 03:01:01;;;;;;;;;18.33;16.00;;;;;18.92;70.49;100650.50;5026036;28;45531;-85
2023/07/03 03:03:28;;;;;;;;;13.67;13.00;;;;;18.98;70.64;100647.81;5025825;28;46190;-82
2023/07/03 03:05:55;;;;;;;;;18.00;14.00;;;;;18.95;70.26;100636.34;5024804;28;45493;-72
2023/07/03 03:08:23;;;;;;;;;15.67;13.00;;;;;18.90;71.33;100646.06;5018413;28;45433;-82
2023/07/03 03:10:51;;;;;;;;;18.67;15.00;;;;;18.83;71.69;100638.16;5013037;28;45583;-86
2023/07/03 03:13:16;;;;;;;;;23.00;18.33;;;;;18.87;71.80;100636.38;5033153;28;46040;-81
2023/07/03 03:15:43;;;;;;;;;19.67;17.33;;;;;18.88;71.53;100630.22;5017153;28;45462;-85
2023/07/03 03:18:09;;;;;;;;;19.00;14.67;;;;;18.89;72.16;100634.59;5018232;28;45473;-74
2023/07/03 03:20:34;;;;;;;;;18.00;15.00;;;;;18.83;72.40;100622.25;5033100;28;45436;-78
2023/07/03 03:23:00;;;;;;;;;17.33;15.67;;;;;18.89;72.48;100637.25;5033903;28;45563;-73
2023/07/03 03:25:25;;;;;;;;;15.00;12.00;;;;;18.93;71.95;100635.47;5019058;28;45454;-83
2023/07/03 03:27:51;;;;;;;;;19.33;16.00;;;;;18.97;71.38;100632.81;5036582;28;45517;-72
2023/07/03 03:30:16;;;;;;;;;17.67;15.00;;;;;18.93;70.72;100624.91;5022641;28;45494;-72
2023/07/03 03:32:43;;;;;;;;;13.67;13.00;;;;;18.90;70.98;100632.84;5030275;28;45852;-86
2023/07/03 03:35:08;;;;;;;;;17.00;13.00;;;;;18.87;70.95;100642.53;5021896;28;45569;-78
2023/07/03 03:37:34;;;;;;;;;15.67;15.33;;;;;18.85;71.01;100628.44;5030583;28;45649;-83
2023/07/03 03:39:59;;;;;;;;;21.00;15.67;;;;;18.74;71.10;100618.72;5037256;28;45591;-86
2023/07/03 03:42:25;;;;;;;;;15.67;13.00;;;;;18.67;71.31;100618.75;5017854;28;46160;-84
2023/07/03 03:44:50;;;;;;;;;17.00;15.00;;;;;18.72;70.96;100633.72;5018120;28;45555;-81
2023/07/03 03:47:16;;;;;;;;;14.33;13.00;;;;;18.72;70.96;100639.91;5028770;28;45676;-85
2023/07/03 03:49:41;;;;;;;;;13.00;12.00;;;;;18.79;70.67;100638.13;5031604;28;45208;-86
2023/07/03 03:52:07;;;;;;;;;18.00;15.33;;;;;18.83;70.63;100627.56;5019985;28;45475;-86
2023/07/03 03:54:32;;;;;;;;;14.33;12.67;;;;;18.91;70.81;100631.97;5036949;28;45542;-86
2023/07/03 03:56:58;;;;;;;;;12.67;10.67;;;;;18.90;70.75;100632.84;5034578;28;45473;-86
2023/07/03 03:59:23;;;;;;;;;15.67;13.33;;;;;18.91;70.36;100635.47;5023702;28;45446;-84
2023/07/03 04:01:50;;;;;;;;;13.00;11.33;;;;;18.94;70.16;100634.59;5015806;28;46648;-85
2023/07/03 04:04:16;;;;;;;;;15.33;14.67;;;;;18.87;70.24;100631.97;5018065;28;45510;-86
2023/07/03 04:06:43;;;;;;;;;16.33;13.00;;;;;18.86;70.39;100624.91;5018205;28;45323;-86
2023/07/03 04:09:09;;;;;;;;;14.33;13.33;;;;;18.95;70.02;100631.06;5038470;28;45355;-82
2023/07/03 04:11:35;;;;;;;;;12.67;12.33;;;;;18.86;70.11;100627.56;5020627;28;45384;-87
2023/07/03 04:14:00;;;;;;;;;12.67;12.33;;;;;18.73;70.01;100630.22;5029644;28;45564;-82
2023/07/03 04:16:28;;;;;;;;;15.00;12.00;;;;;18.68;70.67;100632.84;5029398;28;45545;-85
2023/07/03 04:18:54;;;;;;;;;14.67;13.33;;;;;18.63;70.35;100646.09;5017699;28;45419;-76
2023/07/03 04:21:20;;;;;;;;;14.33;13.00;;;;;18.63;70.23;100619.63;5017402;28;45491;-73
2023/07/03 04:23:45;;;;;;;;;13.00;13.00;;;;;18.75;70.15;100642.53;5019936;28;45245;-73
2023/07/03 04:26:11;;;;;;;;;19.00;15.00;;;;;18.69;70.15;100624.91;5037288;28;45565;-73
2023/07/03 04:28:36;;;;;;;;;15.67;15.67;;;;;18.75;69.92;100642.53;5036749;28;45560;-87
2023/07/03 04:31:02;;;;;;;;;15.00;13.00;;;;;18.75;69.89;100631.09;5028635;28;46399;-87
2023/07/03 04:33:28;;;;;;;;;12.00;12.00;;;;;18.74;70.03;100626.66;5017759;28;45289;-87
2023/07/03 04:35:54;;;;;;;;;14.00;13.00;;;;;18.72;69.80;100637.28;5032823;28;45443;-86
2023/07/03 04:38:23;;;;;;;;;13.33;12.00;;;;;18.66;69.75;100624.03;5036849;28;45462;-87
2023/07/03 04:40:53;;;;;;;;;15.00;13.00;;;;;18.72;69.82;100637.28;5037085;28;46211;-87
2023/07/03 04:43:18;;;;;;;;;12.00;11.33;;;;;18.69;69.85;100632.84;5026271;28;45283;-86
2023/07/03 04:45:48;;;;;;;;;12.67;10.33;;;;;18.69;70.05;100629.31;5023901;28;45290;-86
2023/07/03 04:48:15;;;;;;;;;13.33;12.67;;;;;18.53;69.93;100639.06;5034184;28;45640;-87
2023/07/03 04:50:40;;;;;;;;;13.00;12.33;;;;;18.42;70.52;100646.09;5017579;28;46076;-86
2023/07/03 04:53:06;;;;;;;;;7.33;6.00;;;;;18.36;70.77;100654.03;5035562;28;45307;-87
2023/07/03 04:55:34;;;;;;;;;9.00;8.00;;;;;18.30;71.03;100641.69;5021806;28;45228;-87
2023/07/03 04:57:59;;;;;;;;;13.00;11.33;;;;;18.39;70.83;100649.66;5017203;28;45407;-87
2023/07/03 05:00:27;;;;;;;;;13.00;12.00;;;;;18.37;70.66;100637.31;5020681;28;45941;-87
2023/07/03 05:02:57;;;;;;;;;12.33;11.33;;;;;18.50;70.71;100641.69;5017836;28;45341;-86
2023/07/03 05:05:23;;;;;;;;;11.00;11.00;;;;;18.64;70.78;100633.72;5031239;28;45368;-86
2023/07/03 05:07:49;;;;;;;;;12.67;11.33;;;;;18.79;69.79;100632.84;5034896;28;45356;-87
2023/07/03 05:10:16;;;;;;;;;15.00;12.67;;;;;18.96;69.57;100643.41;5016783;28;45544;-87
2023/07/03 05:12:42;;;;;;;;;14.00;12.00;;;;;19.05;69.50;100643.38;5026339;28;45552;-78
2023/07/03 05:15:09;;;;;;;;;12.33;11.67;;;;;19.06;69.17;100638.09;5022115;28;45484;-74
2023/07/03 05:17:38;;;;;;;;;15.67;13.33;;;;;19.08;69.01;100638.97;5030687;28;45450;-76
2023/07/03 05:20:08;;;;;;;;;13.00;13.00;;;;;19.15;69.08;100638.94;5031305;28;46878;-80
2023/07/03 05:22:38;;;;;;;;;13.33;12.00;;;;;19.26;68.53;100642.44;5016139;28;45473;-80
2023/07/03 05:25:04;;;;;;;;;13.00;12.00;;;;;19.33;68.31;100644.16;5016380;28;45323;-78
2023/07/03 05:27:30;;;;;;;;;14.00;12.00;;;;;19.43;67.72;100642.34;5031556;28;45512;-76
2023/07/03 05:29:57;;;;;;;;;12.33;11.00;;;;;19.51;67.27;100645.81;5018817;28;45462;-75
2023/07/03 05:32:23;;;;;;;;;12.67;11.67;;;;;19.57;67.39;100637.84;5017038;28;45469;-72
2023/07/03 05:34:48;;;;;;;;;12.00;11.33;;;;;19.62;66.99;100640.50;5036305;28;45402;-81
2023/07/03 05:37:14;;;;;;;;;13.67;12.67;;;;;19.75;66.78;100650.13;5032947;28;45457;-73
2023/07/03 05:39:39;;;;;;;;;13.33;13.33;;;;;19.71;66.69;100632.50;5030616;28;45749;-72
2023/07/03 05:42:06;;;;;;;;;14.67;12.33;;;;;19.83;66.48;100642.16;5023703;28;45593;-74
2023/07/03 05:44:31;;;;;;;;;16.33;13.00;;;;;19.92;66.53;100649.19;5033744;28;45332;-73
2023/07/03 05:46:56;;;;;;;;;14.33;13.00;;;;;20.04;66.52;100651.72;5022412;28;45300;-74
2023/07/03 05:49:22;;;;;;;;;14.33;12.33;;;;;20.14;66.10;100650.78;5032974;28;45861;-81
2023/07/03 05:51:47;;;;;;;;;14.33;14.00;;;;;20.29;65.86;100663.00;5038521;28;45425;-86
2023/07/03 05:54:16;;;;;;;;;13.67;13.00;;;;;20.33;66.12;100654.13;5018487;28;45331;-85
2023/07/03 05:56:43;;;;;;;;;14.67;14.00;;;;;20.39;66.12;100654.13;5029561;28;45582;-80
2023/07/03 05:59:08;;;;;;;;;15.67;14.00;;;;;20.45;66.04;100651.41;5027657;28;45521;-86
2023/07/03 06:01:34;;;;;;;;;12.67;12.00;;;;;20.59;65.66;100650.41;5020450;28;45575;-86
2023/07/03 06:03:59;;;;;;;;;16.00;14.33;;;;;20.87;65.78;100637.75;5033242;28;45512;-76
2023/07/03 06:06:25;;;;;;;;;14.33;13.00;;;;;23.66;59.48;100625.19;5020038;28;45421;-75
2023/07/03 06:08:51;;;;;;;;;11.33;11.00;;;;;26.44;53.70;100620.00;5020824;28;45459;-79
2023/07/03 06:11:16;;;;;;;;;9.67;9.33;;;;;28.40;48.44;100616.06;5037259;28;45564;-74
2023/07/03 06:13:42;;;;;;;;;12.67;11.00;;;;;29.94;43.80;100609.94;5037533;28;45509;-78
2023/07/03 06:16:07;;;;;;;;;13.00;11.00;;;;;31.35;42.21;100606.16;5022965;28;45492;-86
2023/07/03 06:18:33;;;;;;;;;12.33;11.33;;;;;32.55;39.42;100612.81;5019395;28;45487;-75
2023/07/03 06:20:59;;;;;;;;;12.33;11.00;;;;;33.58;37.59;100610.88;5019072;28;45498;-86
2023/07/03 06:23:24;;;;;;;;;11.33;10.00;;;;;34.26;35.47;100612.69;5017650;28;45658;-83
2023/07/03 06:25:50;;;;;;;;;10.67;10.33;;;;;34.71;34.34;100602.38;5009135;28;45622;-86
2023/07/03 06:28:16;;;;;;;;;12.67;12.00;;;;;35.48;34.02;100609.59;5012147;28;45435;-74
2023/07/03 06:30:49;;;;;;;;;12.67;11.00;;;;;36.27;32.46;100615.47;5020925;28;45586;-85
2023/07/03 06:33:15;;;;;;;;;11.67;11.33;;;;;36.76;30.78;100623.44;5018972;28;45563;-75
2023/07/03 06:35:40;;;;;;;;;11.67;11.00;;;;;37.35;31.74;100622.38;5033193;28;45632;-83
2023/07/03 06:38:07;;;;;;;;;10.67;10.00;;;;;38.16;29.33;100627.53;5034011;28;46452;-83
2023/07/03 06:40:32;;;;;;;;;14.00;14.00;;;;;38.58;28.03;100625.75;5027140;28;45483;-78
2023/07/03 06:42:58;;;;;;;;;10.33;10.00;;;;;38.18;29.87;100631.88;5034383;28;45505;-79
2023/07/03 06:45:23;;;;;;;;;11.67;11.33;;;;;38.29;29.34;100624.63;5019395;28;45517;-78
2023/07/03 06:47:49;;;;;;;;;11.33;11.33;;;;;38.97;28.11;100628.72;5018589;28;45435;-76
2023/07/03 06:50:14;;;;;;;;;12.33;10.33;;;;;38.92;27.54;100622.78;5017976;28;45468;-77
2023/07/03 06:52:41;;;;;;;;;14.33;11.33;;;;;39.46;27.34;100630.81;5053803;28;45506;-74
2023/07/03 06:55:07;;;;;;;;;12.00;11.00;;;;;40.17;26.58;100634.25;5028380;28;45526;-79
2023/07/03 06:57:39;;;;;;;;;12.33;11.33;;;;;40.55;26.85;100623.47;5017089;28;46028;-71
2023/07/03 07:00:06;;;;;;;;;12.33;12.00;;;;;40.60;25.71;100618.38;5017878;28;45470;-75
2023/07/03 07:02:31;;;;;;;;;9.00;8.33;;;;;41.53;24.90;100619.34;5032634;28;45466;-81
2023/07/03 07:04:57;;;;;;;;;12.33;10.33;;;;;40.75;25.73;100629.78;5012032;28;45540;-77
2023/07/03 07:07:22;;;;;;;;;13.33;12.33;;;;;39.02;27.60;100616.50;5018094;28;46114;-80
2023/07/03 07:09:48;;;;;;;;;14.00;12.00;;;;;40.04;26.53;100614.53;5018486;28;45593;-74
2023/07/03 07:12:13;;;;;;;;;14.00;12.00;;;;;40.64;26.24;100599.78;5018013;28;45324;-74
2023/07/03 07:14:39;;;;;;;;;11.00;11.00;;;;;40.18;27.25;100624.19;5018431;28;45351;-79
2023/07/03 07:17:04;;;;;;;;;10.67;10.00;;;;;41.52;25.33;100614.03;5017085;28;45229;-83
2023/07/03 07:19:30;;;;;;;;;12.67;12.00;;;;;42.47;24.64;100604.38;5025925;28;45253;-76
2023/07/03 07:21:56;;;;;;;;;11.33;10.33;;;;;43.38;24.26;100615.94;5020853;28;45521;-77
2023/07/03 07:24:24;;;;;;;;;11.67;11.00;;;;;44.31;24.34;100618.50;5017866;28;45514;-87
2023/07/03 07:26:54;;;;;;;;;11.67;11.67;;;;;45.14;21.55;100622.88;5017882;28;46056;-79
2023/07/03 07:29:20;;;;;;;;;10.33;10.33;;;;;45.01;22.87;100608.81;5015374;28;45419;-78
2023/07/03 07:31:46;;;;;;;;;12.00;11.00;;;;;42.87;23.24;100602.94;5026174;28;45315;-76
2023/07/03 07:34:12;;;;;;;;;12.33;10.33;;;;;42.06;24.39;100598.53;5020870;28;45624;-76
2023/07/03 07:36:39;;;;;;;;;12.00;11.67;;;;;42.94;24.35;100603.16;5018299;28;46233;-77
2023/07/03 07:39:04;;;;;;;;;13.67;10.67;;;;;42.01;25.61;100600.00;5026802;28;45501;-76
2023/07/03 07:41:31;;;;;;;;;12.33;12.33;;;;;41.41;24.32;100603.28;5023951;28;45501;-75
2023/07/03 07:43:58;;;;;;;;;11.00;10.00;;;;;41.51;23.11;100604.09;5018402;28;45997;-75
2023/07/03 07:46:28;;;;;;;;;10.33;10.00;;;;;40.10;24.58;100603.00;5022375;28;45422;-74
2023/07/03 07:48:56;;;;;;;;;11.67;11.67;;;;;40.05;26.51;100607.19;5035091;28;45477;-77
2023/07/03 07:51:23;;;;;;;;;10.00;9.00;;;;;39.08;26.79;100605.06;5021319;28;45304;-77
2023/07/03 07:53:48;;;;;;;;;11.33;10.00;;;;;37.92;27.65;100605.91;5019762;28;45323;-75
2023/07/03 07:56:14;;;;;;;;;12.33;11.00;;;;;39.04;26.19;100600.84;5027070;28;45538;-82
2023/07/03 07:58:40;;;;;;;;;11.00;11.00;;;;;39.19;26.96;100605.81;5017714;28;45517;-76
2023/07/03 08:01:06;;;;;;;;;12.67;12.00;;;;;39.56;25.28;100604.38;5023655;28;45583;-77
2023/07/03 08:03:31;;;;;;;;;12.67;12.00;;;;;40.24;25.20;100603.56;5028063;28;45439;-79
2023/07/03 08:05:59;;;;;;;;;10.33;9.33;;;;;40.84;24.78;100615.19;5019488;28;46182;-79
2023/07/03 08:08:26;;;;;;;;;9.33;8.67;;;;;41.39;24.46;100613.53;5025992;28;45727;-88
2023/07/03 08:11:00;;;;;;;;;13.00;10.00;;;;;42.15;23.38;100623.31;5017987;28;45461;-76
2023/07/03 08:13:27;;;;;;;;;11.67;11.33;;;;;41.88;23.91;100616.84;5022665;28;45634;-75
2023/07/03 08:15:54;;;;;;;;;11.33;11.00;;;;;42.02;24.09;100610.84;5031722;28;46325;-77
2023/07/03 08:18:20;;;;;;;;;9.00;8.67;;;;;42.98;23.43;100620.16;5021663;28;45452;-80
2023/07/03 08:20:46;;;;;;;;;7.67;7.00;;;;;43.04;22.09;100608.53;5031788;28;45420;-80
2023/07/03 08:23:12;;;;;;;;;12.33;11.67;;;;;42.57;23.21;100612.50;5030760;28;45542;-79
2023/07/03 08:25:39;;;;;;;;;9.00;9.00;;;;;42.82;23.15;100615.41;5019592;28;46087;-79
2023/07/03 08:28:05;;;;;;;;;11.00;10.00;;;;;42.89;22.24;100613.78;5016513;28;45533;-81
2023/07/03 08:30:30;;;;;;;;;9.00;9.00;;;;;43.09;21.00;100607.00;5011799;28;45479;-78
2023/07/03 08:32:56;;;;;;;;;11.67;11.00;;;;;42.96;22.71;100609.34;5007382;28;45492;-76
2023/07/03 08:35:22;;;;;;;;;10.00;10.00;;;;;42.65;22.92;100611.72;5029155;28;46165;-84
2023/07/03 08:37:47;;;;;;;;;10.00;10.00;;;;;42.76;22.39;100603.19;5017265;28;45555;-81
2023/07/03 08:40:19;;;;;;;;;11.00;10.33;;;;;42.42;22.97;100589.38;5017583;28;45565;-78
2023/07/03 08:42:53;;;;;;;;;10.33;8.67;;;;;41.05;23.70;100604.00;5016193;28;45515;-82
2023/07/03 08:45:20;;;;;;;;;11.33;11.33;;;;;41.02;24.19;100600.69;5043330;28;45812;-80
2023/07/03 08:47:49;;;;;;;;;12.67;12.67;;;;;41.95;23.22;100590.50;5020850;28;45501;-78
2023/07/03 08:50:18;;;;;;;;;9.00;9.00;;;;;42.30;23.93;100602.47;5033229;28;45434;-77
2023/07/03 08:53:05;;;;;;;;;11.67;10.67;;;;;42.34;22.54;100598.41;5032940;28;45469;-75
2023/07/03 08:55:43;;;;;;;;;11.00;10.00;;;;;42.52;22.84;100581.94;5017029;28;45969;-77
2023/07/03 08:58:09;;;;;;;;;12.00;12.00;;;;;42.93;22.67;100573.94;5015176;28;45323;-77
2023/07/03 09:00:50;;;;;;;;;9.00;8.67;;;;;42.58;22.15;100583.16;5015609;28;45754;-77
2023/07/03 09:03:28;;;;;;;;;14.00;14.00;;;;;41.53;22.87;100593.81;5017501;28;45609;-77
2023/07/03 09:06:07;;;;;;;;;9.00;9.00;;;;;42.01;23.34;100592.63;5035744;28;46217;-77
2023/07/03 09:08:43;;;;;;;;;11.33;11.33;;;;;42.04;21.98;100600.59;5022000;28;45225;-75
2023/07/03 09:11:10;;;;;;;;;8.00;8.00;;;;;41.85;22.25;100596.06;5019524;28;45430;-74
2023/07/03 09:13:45;;;;;;;;;9.67;9.00;;;;;42.72;21.95;100583.44;5025721;28;45353;-76
2023/07/03 09:16:22;;;;;;;;;9.67;9.00;;;;;44.05;21.55;100597.50;5015066;28;45362;-73
2023/07/03 09:19:21;;;;;;;;;12.00;11.00;;;;;43.29;21.62;100602.13;5028739;28;45450;-74
2023/07/03 09:21:51;;;;;;;;;10.67;10.00;;;;;42.06;23.10;100587.56;5023099;28;45615;-75
2023/07/03 09:24:30;;;;;;;;;11.00;11.00;;;;;41.35;23.94;100604.75;5010352;28;45513;-76
2023/07/03 09:27:15;;;;;;;;;11.33;10.33;;;;;42.04;23.21;100606.06;5009498;28;45912;-75
2023/07/03 09:29:42;;;;;;;;;11.33;8.67;;;;;42.64;23.40;100596.22;5015393;28;45575;-76
2023/07/03 09:32:12;;;;;;;;;11.33;10.00;;;;;43.34;22.11;100596.16;5013678;28;45527;-78
2023/07/03 09:34:57;;;;;;;;;9.00;9.00;;;;;43.40;22.41;100602.88;5015065;28;45519;-72
2023/07/03 09:37:23;;;;;;;;;11.00;10.67;;;;;42.01;23.22;100605.47;5023239;28;46540;-74
2023/07/03 09:39:52;;;;;;;;;12.00;11.67;;;;;41.76;22.54;100604.38;5021720;28;45784;-78
2023/07/03 09:42:17;;;;;;;;;10.00;9.00;;;;;41.95;23.16;100620.69;5014859;28;45494;-76
2023/07/03 09:44:43;;;;;;;;;10.67;10.67;;;;;40.72;22.80;100617.19;5019497;28;45554;-75
2023/07/03 09:47:26;;;;;;;;;11.00;10.00;;;;;38.91;24.39;100599.19;5022655;28;46046;-72
2023/07/03 09:49:52;;;;;;;;;7.33;7.33;;;;;38.36;25.05;100607.59;5015476;28;45393;-72
2023/07/03 09:52:17;;;;;;;;;11.00;9.00;;;;;38.57;25.47;100601.31;5016526;28;45535;-72
2023/07/03 09:54:46;;;;;;;;;10.67;10.33;;;;;37.98;26.66;100600.81;5013814;28;45419;-75
2023/07/03 09:57:27;;;;;;;;;12.00;11.67;;;;;37.24;28.53;100605.16;5013662;28;46005;-73
2023/07/03 10:00:10;;;;;;;;;9.67;8.67;;;;;36.96;28.03;100575.56;5022508;28;45626;-75
2023/07/03 10:02:36;;;;;;;;;10.00;8.33;;;;;36.86;28.39;100606.38;5015499;28;46774;-73
2023/07/03 10:05:03;;;;;;;;;10.00;9.00;;;;;36.25;28.81;100607.44;5014333;28;45648;-74
2023/07/03 10:07:33;;;;;;;;;8.00;7.67;;;;;35.79;29.16;100590.06;5026032;28;47096;-74
2023/07/03 10:09:58;;;;;;;;;14.33;12.33;;;;;35.90;29.44;100601.97;5024796;28;45421;-74
2023/07/03 10:12:36;;;;;;;;;10.67;10.00;;;;;35.90;30.53;100594.66;4999863;28;45566;-74
2023/07/03 10:15:14;;;;;;;;;10.00;8.67;;;;;36.21;28.42;100592.34;5035377;28;45351;-74
2023/07/03 10:17:52;;;;;;;;;8.00;7.67;;;;;36.37;29.36;100594.75;5034626;28;46220;-71
2023/07/03 10:20:35;;;;;;;;;10.33;9.33;;;;;37.02;28.62;100585.09;4999224;28;45440;-74
2023/07/03 10:23:04;;;;;;;;;9.00;9.00;;;;;36.67;29.12;100594.25;5019575;28;45540;-74
2023/07/03 10:25:39;;;;;;;;;10.33;8.67;;;;;35.98;28.85;100589.50;5036155;28;45476;-72
2023/07/03 10:28:12;;;;;;;;;10.33;9.33;;;;;35.37;29.50;100586.78;5038672;28;46266;-73
2023/07/03 10:30:39;;;;;;;;;11.67;11.00;;;;;35.08;30.70;100583.47;5038371;28;45395;-72
2023/07/03 10:33:11;;;;;;;;;10.33;10.33;;;;;35.02;30.82;100589.34;5028343;28;45509;-73
2023/07/03 10:35:41;;;;;;;;;12.33;11.67;;;;;35.23;30.57;100566.06;5020928;28;45525;-74
2023/07/03 10:38:10;;;;;;;;;10.00;9.33;;;;;35.41;30.77;100577.44;5012117;28;45342;-74
2023/07/03 10:40:57;;;;;;;;;9.67;9.67;;;;;34.56;31.42;100579.00;5019852;28;45602;-73
2023/07/03 10:43:28;;;;;;;;;9.00;8.33;;;;;34.57;31.97;100578.91;5018546;28;45303;-73
2023/07/03 10:45:56;;;;;;;;;7.67;7.67;;;;;34.13;31.48;100576.53;5025503;28;45581;-72
2023/07/03 10:48:27;;;;;;;;;11.00;9.33;;;;;33.67;33.01;100578.66;5037849;28;46215;-72
2023/07/03 10:51:12;;;;;;;;;7.00;6.67;;;;;33.61;32.33;100579.03;5033260;28;45438;-73
2023/07/03 10:53:45;;;;;;;;;8.33;7.67;;;;;32.86;33.18;100590.13;5025343;28;45499;-73
2023/07/03 10:56:19;;;;;;;;;9.33;8.67;;;;;32.08;34.49;100579.50;5037600;28;45398;-72
2023/07/03 10:59:10;;;;;;;;;7.00;7.00;;;;;31.52;34.91;100580.97;5020599;28;45618;-74
2023/07/03 11:01:48;;;;;;;;;10.67;10.67;;;;;31.61;36.05;100585.81;5026246;28;45366;-73
2023/07/03 11:04:35;;;;;;;;;10.33;9.00;;;;;32.36;34.88;100579.69;5023536;28;45518;-73
2023/07/03 11:07:28;;;;;;;;;8.00;7.33;;;;;32.70;34.77;100571.25;5018343;28;45351;-74
2023/07/03 11:10:16;;;;;;;;;12.67;11.33;;;;;32.79;34.78;100568.94;5029806;28;46216;-72
2023/07/03 11:13:05;;;;;;;;;10.00;9.67;;;;;32.49;34.06;100572.56;5029022;28;45319;-74
2023/07/03 11:16:04;;;;;;;;;11.00;10.00;;;;;32.21;34.95;100565.25;5036661;28;45448;-74
2023/07/03 11:18:51;;;;;;;;;14.33;11.33;;;;;31.75;36.45;100559.84;5027915;28;45382;-74